Austin, Nevada
Current Conditions -  °F | °C
As of 1:56 AM on Thursday 29 Jan 2015 (Local Time) from KNFL Reporting Station
Overcast Overcast  
Wind Chill: 37°   Ceiling: 8500
Heat Index: 37°   Visibility: 10mi
Dew Point: 35°   Wind: 3mph
Humidity: 93%   Direction: 240°WSW
Pressure: 30.29"   Gusts: NA
Location:  39.49°N, 117.07°W
Report Text: KNFL 290956Z AUTO 24003KT 10SM OVC085 03/02 A3029 RMK AO2 SLP216 T00280017
Loading
Personal Weather Stations






























Interactive Weather Map New forecast layout! Learn more

10-Day Weather Forecast

Advertisements
Track Severe Weather on mobile